createdAt,value
2023-03-21T00:00:48.077Z,80.00
2023-03-21T00:03:23.015Z,62.00
2023-03-21T00:05:53.680Z,65.50
2023-03-21T00:08:23.385Z,98.25
2023-03-21T00:11:02.363Z,63.00
2023-03-21T00:13:34.258Z,59.75
2023-03-21T00:16:10.303Z,63.25
2023-03-21T00:18:52.456Z,60.50
2023-03-21T00:24:19.220Z,63.75
2023-03-21T00:27:39.810Z,59.25
2023-03-21T00:30:02.174Z,58.00
2023-03-21T00:33:23.668Z,65.50
2023-03-21T00:36:02.257Z,61.25
2023-03-21T00:38:34.854Z,60.75
2023-03-21T00:41:21.071Z,66.00
2023-03-21T00:43:55.769Z,61.00
2023-03-21T00:46:30.161Z,61.50
2023-03-21T00:49:07.542Z,60.50
2023-03-21T00:52:39.894Z,63.25
2023-03-21T00:55:21.122Z,57.75
2023-03-21T00:58:05.680Z,61.00
2023-03-21T01:01:43.515Z,64.50
2023-03-21T01:04:41.254Z,60.75
2023-03-21T01:07:23.353Z,63.25
2023-03-21T01:10:43.365Z,60.00
2023-03-21T01:13:27.996Z,59.00
2023-03-21T01:16:00.508Z,67.75
2023-03-21T01:18:59.822Z,77.75
2023-03-21T01:22:20.990Z,76.00
2023-03-21T01:25:21.429Z,61.50
2023-03-21T01:28:09.306Z,61.75
2023-03-21T01:30:50.368Z,60.00
2023-03-21T01:33:31.193Z,60.75
2023-03-21T01:36:52.160Z,62.00
2023-03-21T01:39:44.187Z,57.75
2023-03-21T01:42:24.157Z,60.00
2023-03-21T01:45:08.089Z,61.50
2023-03-21T01:48:12.165Z,60.50
2023-03-21T01:51:07.166Z,59.00
2023-03-21T01:54:02.358Z,60.00
2023-03-21T01:56:47.952Z,55.00
2023-03-21T01:59:54.828Z,59.50
2023-03-21T02:03:15.325Z,55.75
2023-03-21T02:06:50.225Z,57.50
2023-03-21T02:10:08.118Z,57.25
2023-03-21T02:13:23.707Z,55.67
2023-03-21T02:16:32.590Z,61.00
2023-03-21T02:19:53.125Z,55.25
2023-03-21T02:22:42.166Z,56.00
2023-03-21T02:25:57.748Z,59.00
2023-03-21T02:29:04.853Z,56.75
2023-03-21T02:31:52.424Z,60.67
2023-03-21T02:35:16.054Z,59.25
2023-03-21T02:38:52.721Z,70.75
2023-03-21T02:42:04.298Z,62.75
2023-03-21T02:45:07.714Z,58.00
2023-03-21T02:48:56.865Z,59.00
2023-03-21T02:51:37.978Z,57.50
2023-03-21T02:54:51.747Z,56.50
2023-03-21T02:57:43.900Z,57.00
2023-03-21T03:00:29.557Z,58.50
2023-03-21T03:03:39.628Z,56.00
2023-03-21T03:06:45.406Z,60.75
2023-03-21T03:10:04.954Z,59.00
2023-03-21T03:13:48.718Z,59.00
2023-03-21T03:17:30.179Z,58.25
2023-03-21T03:20:50.658Z,66.25
2023-03-21T03:24:25.623Z,61.00
2023-03-21T03:27:34.789Z,61.75
2023-03-21T03:30:44.673Z,56.50
2023-03-21T03:33:45.052Z,57.25
2023-03-21T03:36:32.413Z,59.75
2023-03-21T03:40:05.041Z,76.50
2023-03-21T03:43:19.582Z,68.75
2023-03-21T03:46:24.040Z,61.00
2023-03-21T03:49:25.993Z,61.00
2023-03-21T03:52:40.000Z,58.25
2023-03-21T03:55:34.627Z,60.33
2023-03-21T03:58:43.233Z,61.00
2023-03-21T04:01:58.326Z,62.75
2023-03-21T04:04:29.423Z,63.00
2023-03-21T04:07:18.504Z,61.75
2023-03-21T04:09:54.503Z,59.50
2023-03-21T04:12:25.767Z,61.75
2023-03-21T04:16:05.186Z,67.00
2023-03-21T04:18:33.646Z,61.25
2023-03-21T04:21:13.029Z,62.00
2023-03-21T04:23:55.244Z,62.00
2023-03-21T04:26:48.247Z,63.75
2023-03-21T04:29:32.190Z,59.00
2023-03-21T04:32:26.583Z,59.25
2023-03-21T04:35:10.774Z,57.33
2023-03-21T04:38:02.343Z,58.25
2023-03-21T04:40:54.045Z,60.00
2023-03-21T04:43:26.402Z,60.67
2023-03-21T04:46:39.296Z,66.75
2023-03-21T04:49:27.930Z,58.25
2023-03-21T04:52:04.504Z,61.25
2023-03-21T04:55:14.789Z,95.25
2023-03-21T04:57:42.988Z,80.75
2023-03-21T05:00:21.168Z,101.50
2023-03-21T05:02:49.415Z,72.25
2023-03-21T05:05:49.263Z,71.75
2023-03-21T05:08:26.702Z,78.00
2023-03-21T05:11:41.957Z,90.25
2023-03-21T05:14:21.590Z,83.33
2023-03-21T05:17:05.553Z,61.00
2023-03-21T05:20:06.007Z,70.25
2023-03-21T05:23:04.753Z,68.00
2023-03-21T05:26:26.983Z,64.25
2023-03-21T05:29:10.736Z,65.67
2023-03-21T05:32:59.957Z,63.00
2023-03-21T05:35:37.899Z,70.50
2023-03-21T05:38:33.791Z,75.75
2023-03-21T05:41:34.379Z,75.75
2023-03-21T05:44:07.108Z,74.75
2023-03-21T05:47:38.156Z,67.33
2023-03-21T05:50:44.829Z,64.67
2023-03-21T05:53:57.425Z,67.00
2023-03-21T05:57:21.150Z,61.00
2023-03-21T06:00:40.043Z,63.67
2023-03-21T06:03:17.569Z,61.50
2023-03-21T06:06:32.196Z,61.00
2023-03-21T06:09:10.029Z,59.25
2023-03-21T06:11:38.541Z,61.25
2023-03-21T06:14:47.177Z,71.25
2023-03-21T06:17:35.512Z,63.25
2023-03-21T06:20:30.297Z,59.00
2023-03-21T06:23:04.439Z,65.00
2023-03-21T06:25:35.400Z,59.50
2023-03-21T06:28:07.052Z,55.50
2023-03-21T06:31:22.849Z,54.00
2023-03-21T06:34:13.000Z,55.00
2023-03-21T06:36:47.126Z,60.50
2023-03-21T06:39:59.370Z,53.75
2023-03-21T06:43:28.556Z,55.25
2023-03-21T06:46:00.678Z,62.00
2023-03-21T06:48:28.987Z,57.75
2023-03-21T06:51:02.932Z,54.75
2023-03-21T06:53:33.884Z,55.50
2023-03-21T06:56:47.485Z,52.00
2023-03-21T06:59:33.926Z,49.25
2023-03-21T07:02:34.492Z,50.50
2023-03-21T07:05:22.421Z,46.50
2023-03-21T07:07:50.891Z,46.75
2023-03-21T07:10:22.666Z,51.75
2023-03-21T07:13:01.848Z,46.00
2023-03-21T07:15:44.261Z,46.00
2023-03-21T07:18:13.564Z,45.75
2023-03-21T07:20:48.284Z,44.00
2023-03-21T07:23:19.715Z,45.50
2023-03-21T07:25:49.271Z,47.25
2023-03-21T07:28:17.753Z,46.00
2023-03-21T07:31:01.664Z,44.75
2023-03-21T07:33:30.055Z,44.75
2023-03-21T07:36:02.030Z,43.00
2023-03-21T08:01:14.746Z,41.50
2023-03-21T08:03:43.466Z,44.50
2023-03-21T08:06:11.674Z,42.00
2023-03-21T08:08:39.557Z,38.00
2023-03-21T08:11:07.686Z,37.67
2023-03-21T08:13:35.567Z,40.00
2023-03-21T08:16:03.598Z,39.00
2023-03-21T08:18:31.474Z,41.00
2023-03-21T08:20:59.495Z,41.00
2023-03-21T08:23:27.407Z,41.00
2023-03-21T08:25:55.553Z,42.00
2023-03-21T08:28:23.568Z,41.00
2023-03-21T08:30:51.650Z,40.00
2023-03-21T08:33:19.805Z,38.50
2023-03-21T08:35:47.882Z,42.00
2023-03-21T08:38:16.213Z,38.50
2023-03-21T08:40:44.136Z,40.00
2023-03-21T08:43:14.642Z,39.00
2023-03-21T08:45:42.960Z,39.00
2023-03-21T08:48:11.131Z,40.50
2023-03-21T08:50:39.140Z,42.00
2023-03-21T08:53:07.209Z,39.00
2023-03-21T08:55:35.611Z,40.50
2023-03-21T08:58:03.822Z,42.00
2023-03-21T09:00:32.489Z,41.00
2023-03-21T09:03:00.469Z,45.00
2023-03-21T09:05:28.537Z,44.00
2023-03-21T09:07:56.736Z,41.00
2023-03-21T09:10:24.769Z,40.00
2023-03-21T09:12:53.926Z,36.00
2023-03-21T09:15:24.688Z,42.50
2023-03-21T09:17:54.427Z,39.50
2023-03-21T09:20:26.520Z,41.00
2023-03-21T09:22:54.527Z,39.50
2023-03-21T09:25:23.731Z,36.00
2023-03-21T09:27:52.605Z,38.00
2023-03-21T09:30:25.562Z,36.00
2023-03-21T09:32:55.979Z,35.00
2023-03-21T09:35:25.012Z,39.00
2023-03-21T09:37:53.264Z,36.00
2023-03-21T09:40:45.852Z,35.00
2023-03-21T09:43:42.192Z,37.00
2023-03-21T09:46:27.876Z,32.00
2023-03-21T09:49:09.930Z,30.00
2023-03-21T09:51:40.761Z,32.50
2023-03-21T09:54:14.198Z,31.00
2023-03-21T09:56:42.521Z,30.00
2023-03-21T09:59:11.592Z,33.00
2023-03-21T10:01:45.597Z,31.00
2023-03-21T10:04:16.732Z,30.00
2023-03-21T10:06:45.853Z,29.00
2023-03-21T10:09:21.587Z,32.00
2023-03-21T10:11:53.275Z,32.00
2023-03-21T10:14:21.897Z,34.33
2023-03-21T10:16:52.883Z,32.33
2023-03-21T10:19:21.213Z,32.00
2023-03-21T10:22:01.262Z,30.00
2023-03-21T10:24:31.764Z,33.50
2023-03-21T10:26:59.935Z,31.00
2023-03-21T10:29:30.612Z,32.00
2023-03-21T10:31:58.617Z,30.00
2023-03-21T10:34:32.840Z,32.00
2023-03-21T10:37:01.605Z,31.33
2023-03-21T10:39:42.820Z,30.00
2023-03-21T10:42:17.630Z,28.67
2023-03-21T10:44:47.447Z,37.00
2023-03-21T10:47:23.340Z,31.00
2023-03-21T10:50:06.854Z,30.00
2023-03-21T10:52:36.676Z,32.50
2023-03-21T10:55:29.474Z,31.67
2023-03-21T10:58:08.611Z,30.00
2023-03-21T11:00:41.437Z,42.00
2023-03-21T11:03:38.779Z,39.00
2023-03-21T11:06:16.657Z,34.50
2023-03-21T11:09:06.441Z,38.67
2023-03-21T11:11:37.686Z,38.00
2023-03-21T11:14:08.135Z,37.00
2023-03-21T11:16:40.791Z,38.33
2023-03-21T11:19:14.454Z,37.00
2023-03-21T11:21:42.630Z,36.00
2023-03-21T11:24:15.960Z,34.00
2023-03-21T11:26:48.445Z,33.00
2023-03-21T11:29:44.264Z,37.00
2023-03-21T11:32:14.411Z,37.00
2023-03-21T11:34:53.347Z,35.00
2023-03-21T11:37:49.469Z,35.00
2023-03-21T11:40:26.017Z,33.50
2023-03-21T11:42:58.368Z,33.33
2023-03-21T11:45:33.720Z,35.67
2023-03-21T11:48:06.071Z,32.50
2023-03-21T11:50:42.121Z,37.00
2023-03-21T11:56:05.905Z,34.00
2023-03-21T11:58:39.683Z,31.00
2023-03-21T12:01:10.197Z,38.00
2023-03-21T12:04:19.906Z,31.67
2023-03-21T12:07:14.796Z,39.00
2023-03-21T12:10:08.526Z,33.50
2023-03-21T12:12:50.026Z,34.00
2023-03-21T12:15:44.599Z,32.67
2023-03-21T12:18:36.807Z,32.50
2023-03-21T12:21:16.049Z,33.00
2023-03-21T12:24:09.317Z,34.00
2023-03-21T12:26:50.636Z,32.00
2023-03-21T12:29:36.891Z,34.00
2023-03-21T12:32:24.975Z,33.00
2023-03-21T12:35:10.788Z,32.00
2023-03-21T12:38:09.395Z,32.00
2023-03-21T12:41:02.799Z,36.00
2023-03-21T12:43:39.677Z,37.00
2023-03-21T12:46:17.020Z,42.00
2023-03-21T12:48:52.706Z,43.00
2023-03-21T12:51:23.299Z,45.00
2023-03-21T12:54:05.492Z,36.50
2023-03-21T12:56:55.489Z,34.00
2023-03-21T12:59:36.980Z,34.00
2023-03-21T13:02:21.253Z,36.00
2023-03-21T13:05:23.663Z,38.33
2023-03-21T13:07:59.058Z,34.00
2023-03-21T13:10:27.147Z,36.00
2023-03-21T13:13:22.245Z,34.50
2023-03-21T13:15:59.405Z,35.00
2023-03-21T13:18:49.152Z,36.00
2023-03-21T13:21:55.408Z,36.00
2023-03-21T13:24:33.155Z,36.00
2023-03-21T13:27:36.187Z,32.25
2023-03-21T13:30:17.892Z,35.00
2023-03-21T13:32:47.417Z,41.33
2023-03-21T13:35:32.766Z,44.00
2023-03-21T13:38:17.462Z,41.00
2023-03-21T13:40:49.588Z,45.00
2023-03-21T13:44:06.389Z,41.00
2023-03-21T13:46:50.608Z,42.67
2023-03-21T13:49:29.442Z,45.00
2023-03-21T13:51:58.656Z,43.00
2023-03-21T13:54:34.501Z,46.00
2023-03-21T13:57:05.318Z,46.00
2023-03-21T13:59:43.126Z,42.00
2023-03-21T14:02:30.548Z,49.50
2023-03-21T14:05:06.429Z,44.50
2023-03-21T14:07:41.953Z,47.00
2023-03-21T14:10:37.282Z,44.00
2023-03-21T14:13:06.182Z,44.00
2023-03-21T14:15:43.734Z,45.00
2023-03-21T14:18:28.014Z,44.00
2023-03-21T14:21:23.737Z,50.00
2023-03-21T14:24:02.720Z,48.00
2023-03-21T14:26:33.422Z,53.00
2023-03-21T14:29:05.255Z,48.50
2023-03-21T14:31:33.312Z,45.50
2023-03-21T14:34:01.877Z,47.00
2023-03-21T14:36:33.009Z,47.00
2023-03-21T14:39:07.290Z,51.50
2023-03-21T14:41:52.392Z,49.00
2023-03-21T14:44:28.579Z,49.00
2023-03-21T14:47:00.784Z,50.00
2023-03-21T14:49:33.930Z,48.50
2023-03-21T14:52:07.739Z,49.00
2023-03-21T14:54:38.319Z,50.00
2023-03-21T14:57:08.689Z,49.00
2023-03-21T14:59:38.110Z,48.00
2023-03-21T15:02:19.512Z,47.00
2023-03-21T15:04:50.710Z,47.75
2023-03-21T15:07:32.635Z,49.00
2023-03-21T15:10:04.699Z,49.00
2023-03-21T15:12:32.840Z,51.50
2023-03-21T15:15:01.462Z,50.00
2023-03-21T15:17:29.498Z,50.00
2023-03-21T15:19:57.448Z,54.00
2023-03-21T15:24:54.614Z,53.00
2023-03-21T15:27:24.375Z,50.00
2023-03-21T15:29:57.097Z,50.00
2023-03-21T15:32:26.204Z,53.00
2023-03-21T15:34:54.887Z,51.00
2023-03-21T15:37:25.663Z,49.33
2023-03-21T15:39:54.712Z,49.00
2023-03-21T15:42:24.932Z,54.00
2023-03-21T15:44:55.168Z,53.00
2023-03-21T15:47:51.278Z,54.50
2023-03-21T15:50:25.179Z,54.50
2023-03-21T15:52:53.700Z,58.00
2023-03-21T15:55:31.391Z,65.50
2023-03-21T15:58:01.336Z,71.00
2023-03-21T16:00:49.156Z,84.50
2023-03-21T16:03:18.943Z,66.00
2023-03-21T16:06:16.413Z,66.00
2023-03-21T16:08:46.118Z,72.50
2023-03-21T16:11:16.123Z,61.00
2023-03-21T16:13:44.108Z,54.00
2023-03-21T16:16:30.812Z,53.50
2023-03-21T16:18:59.237Z,54.75
2023-03-21T16:21:28.862Z,60.25
2023-03-21T16:23:58.167Z,76.00
2023-03-21T16:26:31.528Z,102.50
2023-03-21T16:28:59.710Z,111.50
2023-03-21T16:31:32.581Z,124.00
2023-03-21T16:34:01.815Z,91.50
2023-03-21T16:36:33.968Z,71.50
2023-03-21T16:39:15.985Z,55.00
2023-03-21T16:41:44.028Z,53.50
2023-03-21T16:44:12.058Z,56.00
2023-03-21T16:46:40.547Z,59.00
2023-03-21T16:49:17.694Z,62.00
2023-03-21T16:51:45.727Z,65.00
2023-03-21T16:54:13.871Z,75.00
2023-03-21T16:56:47.131Z,71.00
2023-03-21T16:59:15.465Z,74.00
2023-03-21T17:01:46.108Z,119.00
2023-03-21T17:04:15.739Z,120.50
2023-03-21T17:09:16.219Z,105.33
2023-03-21T17:11:44.174Z,98.50
2023-03-21T17:14:12.584Z,115.00
2023-03-21T17:16:42.960Z,131.00
2023-03-21T17:19:16.133Z,168.50
2023-03-21T17:21:44.109Z,178.00
2023-03-21T17:24:12.324Z,97.00
2023-03-21T17:26:40.492Z,83.50
2023-03-21T17:29:12.189Z,85.00
2023-03-21T17:31:40.456Z,74.00
2023-03-21T17:34:09.755Z,68.50
2023-03-21T17:36:39.888Z,59.50
2023-03-21T17:39:09.379Z,56.00
2023-03-21T17:41:37.482Z,60.50
2023-03-21T17:44:05.802Z,65.00
2023-03-21T17:46:38.702Z,75.00
2023-03-21T17:49:06.853Z,78.00
2023-03-21T17:51:34.854Z,75.50
2023-03-21T17:54:03.133Z,62.33
2023-03-21T17:56:31.684Z,53.00
2023-03-21T17:59:04.337Z,70.50
2023-03-21T18:01:32.305Z,100.00
2023-03-21T18:04:02.933Z,76.50
2023-03-21T18:06:31.084Z,52.50
2023-03-21T18:09:00.336Z,58.00
2023-03-21T18:11:28.454Z,53.50
2023-03-21T18:14:06.811Z,55.00
2023-03-21T18:16:43.265Z,62.00
2023-03-21T18:19:12.928Z,60.33
2023-03-21T18:21:44.670Z,58.00
2023-03-21T18:24:14.435Z,60.00
2023-03-21T18:26:43.565Z,59.00
2023-03-21T18:32:07.341Z,158.00
2023-03-21T18:34:37.356Z,136.00
2023-03-21T18:37:08.099Z,107.00
2023-03-21T18:39:36.457Z,127.00
2023-03-21T18:42:05.803Z,100.50
2023-03-21T18:44:38.783Z,75.00
2023-03-21T18:47:07.088Z,76.50
2023-03-21T18:50:10.428Z,67.50
2023-03-21T18:52:23.170Z,79.00
2023-03-21T18:54:51.275Z,64.50
2023-03-21T18:57:37.463Z,64.33
2023-03-21T19:00:17.101Z,61.00
2023-03-21T19:02:47.659Z,66.50
2023-03-21T19:05:17.251Z,67.00
2023-03-21T19:07:46.444Z,56.67
2023-03-21T19:10:18.531Z,59.00
2023-03-21T19:12:51.739Z,71.00
2023-03-21T19:15:21.656Z,75.00
2023-03-21T19:20:43.180Z,71.00
2023-03-21T19:23:11.252Z,59.00
2023-03-21T19:25:39.354Z,57.50
2023-03-21T19:28:07.312Z,74.00
2023-03-21T19:30:35.414Z,61.50
2023-03-21T19:33:03.642Z,61.00
2023-03-21T19:35:32.166Z,57.00
2023-03-21T19:38:00.121Z,51.00
2023-03-21T19:40:28.117Z,51.00
2023-03-21T19:42:57.596Z,56.00
2023-03-21T19:45:26.526Z,53.00
2023-03-21T19:47:54.860Z,54.00
2023-03-21T19:50:55.392Z,56.67
2023-03-21T19:53:16.733Z,50.00
2023-03-21T19:55:44.719Z,44.50
2023-03-21T19:58:16.214Z,46.00
2023-03-21T20:00:44.043Z,46.33
2023-03-21T20:03:12.116Z,57.00
2023-03-21T20:05:40.062Z,59.75
2023-03-21T20:08:10.938Z,54.00
2023-03-21T20:10:39.735Z,59.00
2023-03-21T20:13:07.989Z,68.00
2023-03-21T20:15:45.877Z,76.50
2023-03-21T20:18:16.056Z,68.50
2023-03-21T20:20:44.421Z,75.50
2023-03-21T20:23:15.876Z,95.50
2023-03-21T20:25:45.779Z,84.00
2023-03-21T20:28:17.265Z,65.00
2023-03-21T20:30:56.815Z,56.00
2023-03-21T20:33:25.322Z,55.00
2023-03-21T20:38:52.067Z,61.50
2023-03-21T20:41:20.698Z,57.00
2023-03-21T20:46:37.801Z,60.00
2023-03-21T20:49:08.992Z,65.25
2023-03-21T20:54:26.272Z,59.00
2023-03-21T20:56:55.353Z,60.33
2023-03-21T20:59:27.273Z,66.00
2023-03-21T21:01:57.408Z,65.00
2023-03-21T21:04:46.642Z,74.00
2023-03-21T21:07:17.337Z,75.00
2023-03-21T21:09:45.379Z,76.00
2023-03-21T21:12:15.052Z,75.00
2023-03-21T21:14:43.843Z,99.50
2023-03-21T21:17:54.085Z,83.00
2023-03-21T21:20:15.248Z,60.00
2023-03-21T21:22:58.929Z,60.00
2023-03-21T21:25:29.354Z,63.00
2023-03-21T21:27:57.446Z,64.50
2023-03-21T21:30:25.293Z,58.33
2023-03-21T21:32:54.013Z,57.00
2023-03-21T21:35:22.430Z,55.00
2023-03-21T21:37:51.590Z,54.67
2023-03-21T21:40:22.982Z,61.00
2023-03-21T21:42:51.342Z,59.50
2023-03-21T21:45:19.290Z,60.00
2023-03-21T21:47:47.197Z,69.00
2023-03-21T21:50:15.023Z,76.00
2023-03-21T21:52:43.983Z,58.50
2023-03-21T21:55:13.181Z,58.50
2023-03-21T21:57:41.179Z,57.50
2023-03-21T22:00:13.535Z,58.00
2023-03-21T22:02:42.711Z,57.00
2023-03-21T22:05:10.813Z,58.50
2023-03-21T22:07:39.293Z,57.00
2023-03-21T22:10:08.126Z,55.00
2023-03-21T22:12:36.133Z,54.00
2023-03-21T22:15:07.538Z,53.00
2023-03-21T22:17:36.314Z,56.00
2023-03-21T22:20:09.715Z,54.00
2023-03-21T22:22:37.726Z,54.00
2023-03-21T22:25:06.552Z,56.00
2023-03-21T22:27:34.444Z,57.00
2023-03-21T22:30:04.828Z,58.00
2023-03-21T22:32:36.442Z,56.50
2023-03-21T22:35:05.203Z,56.50
2023-03-21T22:37:34.592Z,54.33
2023-03-21T22:40:02.980Z,54.00
2023-03-21T22:42:31.171Z,59.67
2023-03-21T22:44:59.030Z,63.00
2023-03-21T22:47:26.910Z,56.00
2023-03-21T22:49:54.796Z,51.50
2023-03-21T22:52:22.753Z,54.50
2023-03-21T22:54:50.812Z,55.25
2023-03-21T22:57:20.071Z,54.67
2023-03-21T22:59:48.087Z,54.00
2023-03-21T23:02:16.161Z,52.75
2023-03-21T23:04:44.258Z,54.00
2023-03-21T23:07:12.133Z,52.00
2023-03-21T23:09:40.355Z,51.00
2023-03-21T23:12:08.299Z,49.00
2023-03-21T23:14:36.093Z,52.00
2023-03-21T23:17:04.179Z,50.50
2023-03-21T23:19:32.243Z,48.00
2023-03-21T23:22:00.244Z,48.67
2023-03-21T23:24:28.098Z,48.67
2023-03-21T23:26:56.014Z,49.00
2023-03-21T23:29:23.942Z,50.50
2023-03-21T23:31:51.926Z,50.50
2023-03-21T23:34:19.769Z,49.00
2023-03-21T23:36:47.940Z,48.00
2023-03-21T23:39:18.621Z,48.75
2023-03-21T23:41:46.789Z,51.50
2023-03-21T23:44:15.485Z,52.00
2023-03-21T23:46:43.284Z,53.50
2023-03-21T23:49:11.276Z,52.00
2023-03-21T23:51:39.301Z,53.50
2023-03-21T23:54:07.096Z,51.50
2023-03-21T23:56:36.034Z,49.00
2023-03-21T23:59:03.879Z,50.00
